sensor_id;sensor_type;location;lat;lon;timestamp;pressure;altitude;pressure_sealevel;temperature;humidity
5814;BME280;2933;52.302;8.134;2023-01-23T00:04:33;102375.00;;;0.23;100.00
5814;BME280;2933;52.302;8.134;2023-01-23T00:09:36;102373.28;;;0.21;100.00
5814;BME280;2933;52.302;8.134;2023-01-23T00:14:38;102369.78;;;0.15;100.00
5814;BME280;2933;52.302;8.134;2023-01-23T00:19:40;102374.16;;;0.24;100.00
5814;BME280;2933;52.302;8.134;2023-01-23T00:24:42;102370.75;;;0.24;100.00
5814;BME280;2933;52.302;8.134;2023-01-23T00:29:44;102368.13;;;0.22;100.00
5814;BME280;2933;52.302;8.134;2023-01-23T00:34:46;102365.53;;;0.18;100.00
5814;BME280;2933;52.302;8.134;2023-01-23T00:39:49;102360.56;;;0.31;100.00
5814;BME280;2933;52.302;8.134;2023-01-23T00:44:51;102362.16;;;0.25;100.00
5814;BME280;2933;52.302;8.134;2023-01-23T00:49:52;102366.47;;;0.26;100.00
5814;BME280;2933;52.302;8.134;2023-01-23T00:54:58;102355.28;;;0.22;100.00
5814;BME280;2933;52.302;8.134;2023-01-23T00:59:59;102352.78;;;0.25;100.00
5814;BME280;2933;52.302;8.134;2023-01-23T01:05:01;102347.50;;;0.16;100.00
5814;BME280;2933;52.302;8.134;2023-01-23T01:10:04;102375.91;;;0.25;100.00
5814;BME280;2933;52.302;8.134;2023-01-23T01:15:08;102380.13;;;0.20;100.00
5814;BME280;2933;52.302;8.134;2023-01-23T01:20:11;102384.44;;;0.23;100.00
5814;BME280;2933;52.302;8.134;2023-01-23T01:25:14;102391.31;;;0.25;100.00
5814;BME280;2933;52.302;8.134;2023-01-23T01:30:15;102363.56;;;-0.02;100.00
5814;BME280;2933;52.302;8.134;2023-01-23T01:35:17;102402.44;;;0.24;100.00
5814;BME280;2933;52.302;8.134;2023-01-23T01:40:22;102411.00;;;0.23;100.00
5814;BME280;2933;52.302;8.134;2023-01-23T01:46:03;102407.66;;;0.29;100.00
5814;BME280;2933;52.302;8.134;2023-01-23T01:51:09;102411.06;;;0.26;100.00
5814;BME280;2933;52.302;8.134;2023-01-23T01:56:15;102409.34;;;0.28;100.00
5814;BME280;2933;52.302;8.134;2023-01-23T02:01:18;102398.03;;;0.14;100.00
5814;BME280;2933;52.302;8.134;2023-01-23T02:06:20;102419.75;;;0.36;100.00
5814;BME280;2933;52.302;8.134;2023-01-23T02:11:23;102428.25;;;0.32;100.00
5814;BME280;2933;52.302;8.134;2023-01-23T02:16:26;102437.69;;;0.33;100.00
5814;BME280;2933;52.302;8.134;2023-01-23T02:21:30;102436.06;;;0.40;100.00
5814;BME280;2933;52.302;8.134;2023-01-23T02:26:36;102431.66;;;0.29;100.00
5814;BME280;2933;52.302;8.134;2023-01-23T02:31:39;102427.47;;;0.36;100.00
5814;BME280;2933;52.302;8.134;2023-01-23T02:36:46;102409.31;;;0.25;100.00
5814;BME280;2933;52.302;8.134;2023-01-23T02:41:50;102416.28;;;0.32;100.00
5814;BME280;2933;52.302;8.134;2023-01-23T02:46:52;102415.41;;;0.32;100.00
5814;BME280;2933;52.302;8.134;2023-01-23T02:51:54;102415.41;;;0.34;100.00
5814;BME280;2933;52.302;8.134;2023-01-23T02:56:57;102412.03;;;0.36;100.00
5814;BME280;2933;52.302;8.134;2023-01-23T03:01:59;102405.19;;;0.37;100.00
5814;BME280;2933;52.302;8.134;2023-01-23T03:07:00;102404.31;;;0.36;100.00
5814;BME280;2933;52.302;8.134;2023-01-23T03:12:04;102401.84;;;0.42;100.00
5814;BME280;2933;52.302;8.134;2023-01-23T03:17:06;102405.28;;;0.46;100.00
5814;BME280;2933;52.302;8.134;2023-01-23T03:22:10;102419.72;;;0.35;100.00
5814;BME280;2933;52.302;8.134;2023-01-23T03:27:13;102424.00;;;0.34;100.00
5814;BME280;2933;52.302;8.134;2023-01-23T03:32:15;102424.00;;;0.34;100.00
5814;BME280;2933;52.302;8.134;2023-01-23T03:37:17;102431.72;;;0.36;100.00
5814;BME280;2933;52.302;8.134;2023-01-23T03:42:20;102442.03;;;0.37;100.00
5814;BME280;2933;52.302;8.134;2023-01-23T03:47:22;102444.72;;;0.46;100.00
5814;BME280;2933;52.302;8.134;2023-01-23T03:52:25;102442.91;;;0.38;100.00
5814;BME280;2933;52.302;8.134;2023-01-23T03:57:28;102445.47;;;0.38;100.00
5814;BME280;2933;52.302;8.134;2023-01-23T04:02:30;102452.34;;;0.39;100.00
5814;BME280;2933;52.302;8.134;2023-01-23T04:07:32;102449.03;;;0.47;100.00
5814;BME280;2933;52.302;8.134;2023-01-23T04:12:35;102444.59;;;0.36;100.00
5814;BME280;2933;52.302;8.134;2023-01-23T04:17:36;102453.09;;;0.31;100.00
5814;BME280;2933;52.302;8.134;2023-01-23T04:22:38;102458.34;;;0.38;100.00
5814;BME280;2933;52.302;8.134;2023-01-23T04:27:41;102454.78;;;0.31;100.00
5814;BME280;2933;52.302;8.134;2023-01-23T04:32:43;102457.44;;;0.37;100.00
5814;BME280;2933;52.302;8.134;2023-01-23T04:37:44;102437.69;;;0.33;100.00
5814;BME280;2933;52.302;8.134;2023-01-23T04:42:47;102441.16;;;0.35;100.00
5814;BME280;2933;52.302;8.134;2023-01-23T04:47:49;102454.88;;;0.37;100.00
5814;BME280;2933;52.302;8.134;2023-01-23T04:52:50;102451.53;;;0.41;100.00
5814;BME280;2933;52.302;8.134;2023-01-23T04:57:53;102456.59;;;0.37;100.00
5814;BME280;2933;52.302;8.134;2023-01-23T05:02:55;102470.34;;;0.39;100.00
5814;BME280;2933;52.302;8.134;2023-01-23T05:07:56;102456.50;;;0.29;100.00
5814;BME280;2933;52.302;8.134;2023-01-23T05:12:59;102460.91;;;0.39;100.00
5814;BME280;2933;52.302;8.134;2023-01-23T05:18:01;102466.06;;;0.41;100.00
5814;BME280;2933;52.302;8.134;2023-01-23T05:23:02;102478.84;;;0.35;100.00
5814;BME280;2933;52.302;8.134;2023-01-23T05:28:05;102477.09;;;0.32;100.00
5814;BME280;2933;52.302;8.134;2023-01-23T05:33:07;102484.88;;;0.35;100.00
5814;BME280;2933;52.302;8.134;2023-01-23T05:38:09;102485.72;;;0.36;100.00
5814;BME280;2933;52.302;8.134;2023-01-23T05:43:13;102490.97;;;0.43;100.00
5814;BME280;2933;52.302;8.134;2023-01-23T05:48:15;102499.53;;;0.42;100.00
5814;BME280;2933;52.302;8.134;2023-01-23T05:53:16;102502.13;;;0.42;100.00
5814;BME280;2933;52.302;8.134;2023-01-23T05:58:19;102508.97;;;0.43;100.00
5814;BME280;2933;52.302;8.134;2023-01-23T06:03:21;102505.56;;;0.46;100.00
5814;BME280;2933;52.302;8.134;2023-01-23T06:08:22;102511.59;;;0.48;100.00
5814;BME280;2933;52.302;8.134;2023-01-23T06:13:26;102511.59;;;0.46;100.00
5814;BME280;2933;52.302;8.134;2023-01-23T06:18:27;102514.06;;;0.40;100.00
5814;BME280;2933;52.302;8.134;2023-01-23T06:23:30;102520.16;;;0.47;100.00
5814;BME280;2933;52.302;8.134;2023-01-23T06:28:33;102514.16;;;0.45;100.00
5814;BME280;2933;52.302;8.134;2023-01-23T06:33:35;102518.38;;;0.41;100.00
5814;BME280;2933;52.302;8.134;2023-01-23T06:38:37;102500.22;;;0.30;100.00
5814;BME280;2933;52.302;8.134;2023-01-23T06:43:40;102529.53;;;0.43;100.00
5814;BME280;2933;52.302;8.134;2023-01-23T06:48:41;102537.28;;;0.45;100.00
5814;BME280;2933;52.302;8.134;2023-01-23T06:53:43;102539.72;;;0.37;100.00
5814;BME280;2933;52.302;8.134;2023-01-23T06:58:46;102507.03;;;0.28;100.00
5814;BME280;2933;52.302;8.134;2023-01-23T07:03:48;102557.06;;;0.49;100.00
5814;BME280;2933;52.302;8.134;2023-01-23T07:08:49;102558.69;;;0.44;100.00
5814;BME280;2933;52.302;8.134;2023-01-23T07:13:52;102549.25;;;0.43;100.00
5814;BME280;2933;52.302;8.134;2023-01-23T07:18:55;102570.84;;;0.54;100.00
5814;BME280;2933;52.302;8.134;2023-01-23T07:23:58;102574.25;;;0.53;100.00
5814;BME280;2933;52.302;8.134;2023-01-23T07:29:01;102550.81;;;0.33;100.00
5814;BME280;2933;52.302;8.134;2023-01-23T07:34:02;102563.13;;;0.53;100.00
5814;BME280;2933;52.302;8.134;2023-01-23T07:39:04;102528.38;;;0.21;100.00
5814;BME280;2933;52.302;8.134;2023-01-23T07:44:07;102566.44;;;0.47;100.00
5814;BME280;2933;52.302;8.134;2023-01-23T07:49:16;102581.94;;;0.50;100.00
5814;BME280;2933;52.302;8.134;2023-01-23T07:54:17;102586.16;;;0.46;100.00
5814;BME280;2933;52.302;8.134;2023-01-23T07:59:21;102581.84;;;0.45;100.00
5814;BME280;2933;52.302;8.134;2023-01-23T08:04:22;102591.28;;;0.45;100.00
5814;BME280;2933;52.302;8.134;2023-01-23T08:09:24;102545.56;;;0.24;100.00
5814;BME280;2933;52.302;8.134;2023-01-23T08:14:27;102597.31;;;0.47;100.00
5814;BME280;2933;52.302;8.134;2023-01-23T08:19:28;102609.31;;;0.46;100.00
5814;BME280;2933;52.302;8.134;2023-01-23T08:24:30;102600.69;;;0.44;100.00
5814;BME280;2933;52.302;8.134;2023-01-23T08:29:34;102607.69;;;0.53;100.00
5814;BME280;2933;52.302;8.134;2023-01-23T08:34:36;102611.97;;;0.51;100.00
5814;BME280;2933;52.302;8.134;2023-01-23T08:39:37;102590.09;;;0.24;100.00
5814;BME280;2933;52.302;8.134;2023-01-23T08:44:40;102631.66;;;0.52;100.00
5814;BME280;2933;52.302;8.134;2023-01-23T08:49:42;102633.38;;;0.50;100.00
5814;BME280;2933;52.302;8.134;2023-01-23T08:54:43;102639.34;;;0.49;100.00
5814;BME280;2933;52.302;8.134;2023-01-23T08:59:46;102639.34;;;0.47;100.00
5814;BME280;2933;52.302;8.134;2023-01-23T09:04:48;102649.66;;;0.52;100.00
5814;BME280;2933;52.302;8.134;2023-01-23T09:09:50;102646.34;;;0.58;100.00
5814;BME280;2933;52.302;8.134;2023-01-23T09:14:53;102630.81;;;0.52;100.00
5814;BME280;2933;52.302;8.134;2023-01-23T09:19:54;102600.59;;;0.37;100.00
5814;BME280;2933;52.302;8.134;2023-01-23T09:24:59;102592.75;;;0.29;100.00
5814;BME280;2933;52.302;8.134;2023-01-23T09:30:02;102639.66;;;0.71;100.00
5814;BME280;2933;52.302;8.134;2023-01-23T09:35:04;102640.50;;;0.68;100.00
5814;BME280;2933;52.302;8.134;2023-01-23T09:40:14;102648.16;;;0.63;100.00
5814;BME280;2933;52.302;8.134;2023-01-23T09:45:19;102668.88;;;0.73;100.00
5814;BME280;2933;52.302;8.134;2023-01-23T09:50:25;102662.91;;;0.77;100.00
5814;BME280;2933;52.302;8.134;2023-01-23T09:55:34;102674.09;;;0.79;100.00
5814;BME280;2933;52.302;8.134;2023-01-23T10:00:40;102667.25;;;0.79;100.00
5814;BME280;2933;52.302;8.134;2023-01-23T10:05:46;102660.34;;;0.77;100.00
5814;BME280;2933;52.302;8.134;2023-01-23T10:10:59;102645.72;;;0.74;100.00
5814;BME280;2933;52.302;8.134;2023-01-23T10:16:31;102656.94;;;0.79;100.00
5814;BME280;2933;52.302;8.134;2023-01-23T10:21:39;102668.97;;;0.80;100.00
5814;BME280;2933;52.302;8.134;2023-01-23T10:26:44;102672.47;;;0.86;100.00
5814;BME280;2933;52.302;8.134;2023-01-23T10:31:51;102658.00;;;0.91;100.00
5814;BME280;2933;52.302;8.134;2023-01-23T10:37:04;102657.88;;;0.83;100.00
5814;BME280;2933;52.302;8.134;2023-01-23T10:42:10;102659.53;;;0.79;100.00
5814;BME280;2933;52.302;8.134;2023-01-23T10:47:18;102653.44;;;0.74;100.00
5814;BME280;2933;52.302;8.134;2023-01-23T10:52:29;102666.38;;;0.79;100.00
5814;BME280;2933;52.302;8.134;2023-01-23T10:57:42;102666.50;;;0.87;100.00
5814;BME280;2933;52.302;8.134;2023-01-23T11:02:46;102653.72;;;0.93;100.00
5814;BME280;2933;52.302;8.134;2023-01-23T11:07:53;102656.38;;;0.99;100.00
5814;BME280;2933;52.302;8.134;2023-01-23T11:12:55;102648.47;;;0.87;100.00
5814;BME280;2933;52.302;8.134;2023-01-23T11:18:00;102646.84;;;0.92;100.00
5814;BME280;2933;52.302;8.134;2023-01-23T11:23:04;102664.84;;;0.92;100.00
5814;BME280;2933;52.302;8.134;2023-01-23T11:28:21;102672.72;;;1.03;100.00
5814;BME280;2933;52.302;8.134;2023-01-23T11:33:39;102660.66;;;0.97;100.00
5814;BME280;2933;52.302;8.134;2023-01-23T11:38:44;102657.19;;;0.95;100.00
5814;BME280;2933;52.302;8.134;2023-01-23T11:43:47;102656.44;;;1.02;100.00
5814;BME280;2933;52.302;8.134;2023-01-23T11:49:01;102648.72;;;1.04;100.00
5814;BME280;2933;52.302;8.134;2023-01-23T11:54:20;102658.38;;;1.19;100.00
5814;BME280;2933;52.302;8.134;2023-01-23T11:59:42;102658.28;;;1.11;100.00
5814;BME280;2933;52.302;8.134;2023-01-23T12:10:23;102651.44;;;1.15;100.00
5814;BME280;2933;52.302;8.134;2023-01-23T12:15:31;102657.53;;;1.23;100.00
5814;BME280;2933;52.302;8.134;2023-01-23T12:20:46;102617.78;;;1.01;100.00
5814;BME280;2933;52.302;8.134;2023-01-23T12:25:59;102623.09;;;1.13;100.00
5814;BME280;2933;52.302;8.134;2023-01-23T12:31:11;102648.09;;;1.22;100.00
5814;BME280;2933;52.302;8.134;2023-01-23T12:36:41;102657.69;;;1.35;100.00
5814;BME280;2933;52.302;8.134;2023-01-23T12:41:49;102673.91;;;1.28;100.00
5814;BME280;2933;52.302;8.134;2023-01-23T12:46:56;102666.22;;;1.29;100.00
5814;BME280;2933;52.302;8.134;2023-01-23T12:52:06;102615.34;;;1.08;100.00
5814;BME280;2933;52.302;8.134;2023-01-23T12:57:09;102669.97;;;1.55;100.00
5814;BME280;2933;52.302;8.134;2023-01-23T13:02:16;102651.03;;;1.51;100.00
5814;BME280;2933;52.302;8.134;2023-01-23T13:07:26;102673.38;;;1.54;100.00
5814;BME280;2933;52.302;8.134;2023-01-23T13:12:31;102663.97;;;1.56;100.00
5814;BME280;2933;52.302;8.134;2023-01-23T13:17:36;102665.75;;;1.61;100.00
5814;BME280;2933;52.302;8.134;2023-01-23T13:22:39;102639.69;;;1.35;100.00
5814;BME280;2933;52.302;8.134;2023-01-23T13:27:46;102663.91;;;1.53;100.00
5814;BME280;2933;52.302;8.134;2023-01-23T13:32:50;102658.00;;;1.60;100.00
5814;BME280;2933;52.302;8.134;2023-01-23T13:37:54;102671.63;;;1.50;100.00
5814;BME280;2933;52.302;8.134;2023-01-23T13:42:55;102669.00;;;1.47;100.00
5814;BME280;2933;52.302;8.134;2023-01-23T13:53:44;102686.44;;;1.68;100.00
5814;BME280;2933;52.302;8.134;2023-01-23T13:59:05;102688.00;;;1.56;100.00
5814;BME280;2933;52.302;8.134;2023-01-23T14:04:13;102661.91;;;1.27;100.00
5814;BME280;2933;52.302;8.134;2023-01-23T14:09:41;102696.56;;;1.51;100.00
5814;BME280;2933;52.302;8.134;2023-01-23T14:14:42;102697.31;;;1.43;100.00
5814;BME280;2933;52.302;8.134;2023-01-23T14:20:05;102687.84;;;1.41;100.00
5814;BME280;2933;52.302;8.134;2023-01-23T14:25:17;102679.94;;;1.27;100.00
5814;BME280;2933;52.302;8.134;2023-01-23T14:30:21;102682.53;;;1.30;100.00
5814;BME280;2933;52.302;8.134;2023-01-23T14:35:26;102683.44;;;1.32;100.00
5814;BME280;2933;52.302;8.134;2023-01-23T14:40:29;102679.13;;;1.31;100.00
5814;BME280;2933;52.302;8.134;2023-01-23T14:45:31;102680.84;;;1.31;100.00
5814;BME280;2933;52.302;8.134;2023-01-23T14:50:33;102680.03;;;1.33;100.00
5814;BME280;2933;52.302;8.134;2023-01-23T14:55:39;102676.47;;;1.26;100.00
5814;BME280;2933;52.302;8.134;2023-01-23T15:00:41;102675.63;;;1.24;100.00
5814;BME280;2933;52.302;8.134;2023-01-23T15:05:55;102649.66;;;1.10;100.00
5814;BME280;2933;52.302;8.134;2023-01-23T15:11:00;102683.25;;;1.18;100.00
5814;BME280;2933;52.302;8.134;2023-01-23T15:16:04;102697.91;;;1.22;100.00
5814;BME280;2933;52.302;8.134;2023-01-23T15:21:07;102693.56;;;1.18;100.00
5814;BME280;2933;52.302;8.134;2023-01-23T15:26:21;102691.00;;;1.20;100.00
5814;BME280;2933;52.302;8.134;2023-01-23T15:31:26;102659.13;;;1.13;100.00
5814;BME280;2933;52.302;8.134;2023-01-23T15:36:29;102670.38;;;1.18;100.00
5814;BME280;2933;52.302;8.134;2023-01-23T15:41:42;102667.75;;;1.17;100.00
5814;BME280;2933;52.302;8.134;2023-01-23T15:46:44;102674.44;;;1.02;100.00
5814;BME280;2933;52.302;8.134;2023-01-23T15:51:46;102665.09;;;1.07;100.00
5814;BME280;2933;52.302;8.134;2023-01-23T15:56:49;102660.59;;;0.95;100.00
5814;BME280;2933;52.302;8.134;2023-01-23T16:01:51;102654.63;;;0.95;100.00
5814;BME280;2933;52.302;8.134;2023-01-23T16:06:53;102654.53;;;0.90;100.00
5814;BME280;2933;52.302;8.134;2023-01-23T16:11:56;102663.97;;;0.90;100.00
5814;BME280;2933;52.302;8.134;2023-01-23T16:16:59;102668.38;;;0.97;100.00
5814;BME280;2933;52.302;8.134;2023-01-23T16:22:00;102670.06;;;0.96;100.00
5814;BME280;2933;52.302;8.134;2023-01-23T16:27:03;102642.31;;;0.74;100.00
5814;BME280;2933;52.302;8.134;2023-01-23T16:32:07;102675.03;;;0.83;100.00
5814;BME280;2933;52.302;8.134;2023-01-23T16:37:12;102674.06;;;0.76;100.00
5814;BME280;2933;52.302;8.134;2023-01-23T16:42:19;102657.63;;;0.66;100.00
5814;BME280;2933;52.302;8.134;2023-01-23T16:47:21;102686.06;;;0.77;100.00
5814;BME280;2933;52.302;8.134;2023-01-23T16:52:23;102685.31;;;0.83;100.00
5814;BME280;2933;52.302;8.134;2023-01-23T16:57:27;102653.31;;;0.65;100.00
5814;BME280;2933;52.302;8.134;2023-01-23T17:02:30;102668.09;;;0.78;100.00
5814;BME280;2933;52.302;8.134;2023-01-23T17:07:31;102679.44;;;0.93;100.00
5814;BME280;2933;52.302;8.134;2023-01-23T17:12:34;102682.84;;;0.90;100.00
5814;BME280;2933;52.302;8.134;2023-01-23T17:17:36;102690.56;;;0.90;100.00
5814;BME280;2933;52.302;8.134;2023-01-23T17:22:39;102687.97;;;0.87;100.00
5814;BME280;2933;52.302;8.134;2023-01-23T17:27:43;102692.22;;;0.85;100.00
5814;BME280;2933;52.302;8.134;2023-01-23T17:32:47;102690.53;;;0.87;100.00
5814;BME280;2933;52.302;8.134;2023-01-23T17:37:50;102699.94;;;0.87;100.00
5814;BME280;2933;52.302;8.134;2023-01-23T17:42:54;102690.47;;;0.83;100.00
5814;BME280;2933;52.302;8.134;2023-01-23T17:47:55;102704.25;;;0.86;100.00
5814;BME280;2933;52.302;8.134;2023-01-23T17:52:57;102672.91;;;0.58;100.00
5814;BME280;2933;52.302;8.134;2023-01-23T17:58:00;102686.78;;;0.68;100.00
5814;BME280;2933;52.302;8.134;2023-01-23T18:03:02;102710.06;;;0.74;100.00
5814;BME280;2933;52.302;8.134;2023-01-23T18:08:04;102706.59;;;0.72;100.00
5814;BME280;2933;52.302;8.134;2023-01-23T18:13:16;102716.84;;;0.71;100.00
5814;BME280;2933;52.302;8.134;2023-01-23T18:18:22;102715.16;;;0.71;100.00
5814;BME280;2933;52.302;8.134;2023-01-23T18:23:29;102713.53;;;0.78;100.00
5814;BME280;2933;52.302;8.134;2023-01-23T18:28:39;102725.56;;;0.77;100.00
5814;BME280;2933;52.302;8.134;2023-01-23T18:33:52;102728.06;;;0.74;100.00
5814;BME280;2933;52.302;8.134;2023-01-23T18:39:12;102737.41;;;0.68;100.00
5814;BME280;2933;52.302;8.134;2023-01-23T18:44:23;102743.47;;;0.71;100.00
5814;BME280;2933;52.302;8.134;2023-01-23T18:49:26;102746.84;;;0.69;100.00
5814;BME280;2933;52.302;8.134;2023-01-23T18:54:32;102732.28;;;0.71;100.00
5814;BME280;2933;52.302;8.134;2023-01-23T18:59:43;102741.63;;;0.66;100.00
5814;BME280;2933;52.302;8.134;2023-01-23T19:04:50;102737.22;;;0.58;100.00
5814;BME280;2933;52.302;8.134;2023-01-23T19:09:55;102750.16;;;0.61;100.00
5814;BME280;2933;52.302;8.134;2023-01-23T19:15:19;102751.91;;;0.64;100.00
5814;BME280;2933;52.302;8.134;2023-01-23T19:20:27;102751.91;;;0.64;100.00
5814;BME280;2933;52.302;8.134;2023-01-23T19:25:32;102753.53;;;0.59;100.00
5814;BME280;2933;52.302;8.134;2023-01-23T19:30:36;102750.06;;;0.55;100.00
5814;BME280;2933;52.302;8.134;2023-01-23T19:35:38;102760.44;;;0.61;100.00
5814;BME280;2933;52.302;8.134;2023-01-23T19:40:39;102754.47;;;0.64;100.00
5814;BME280;2933;52.302;8.134;2023-01-23T19:45:43;102769.75;;;0.55;100.00
5814;BME280;2933;52.302;8.134;2023-01-23T19:50:44;102767.16;;;0.55;100.00
5814;BME280;2933;52.302;8.134;2023-01-23T19:55:46;102756.84;;;0.52;100.00
5814;BME280;2933;52.302;8.134;2023-01-23T20:00:49;102769.91;;;0.64;100.00
5814;BME280;2933;52.302;8.134;2023-01-23T20:05:50;102762.78;;;0.47;100.00
5814;BME280;2933;52.302;8.134;2023-01-23T20:10:52;102768.75;;;0.46;100.00
5814;BME280;2933;52.302;8.134;2023-01-23T20:15:55;102780.91;;;0.55;100.00
5814;BME280;2933;52.302;8.134;2023-01-23T20:20:57;102786.16;;;0.61;100.00
5814;BME280;2933;52.302;8.134;2023-01-23T20:26:00;102774.97;;;0.58;100.00
5814;BME280;2933;52.302;8.134;2023-01-23T20:31:05;102775.97;;;0.68;100.00
5814;BME280;2933;52.302;8.134;2023-01-23T20:36:07;102773.34;;;0.64;100.00
5814;BME280;2933;52.302;8.134;2023-01-23T20:41:12;102772.50;;;0.64;100.00
5814;BME280;2933;52.302;8.134;2023-01-23T20:46:15;102764.69;;;0.61;100.00
5814;BME280;2933;52.302;8.134;2023-01-23T20:51:18;102755.28;;;0.60;100.00
5814;BME280;2933;52.302;8.134;2023-01-23T20:56:20;102770.72;;;0.60;100.00
5814;BME280;2933;52.302;8.134;2023-01-23T21:01:29;102778.59;;;0.71;100.00
5814;BME280;2933;52.302;8.134;2023-01-23T21:06:51;102775.09;;;0.66;100.00
5814;BME280;2933;52.302;8.134;2023-01-23T21:11:53;102776.81;;;0.67;100.00
5814;BME280;2933;52.302;8.134;2023-01-23T21:16:56;102768.13;;;0.60;100.00
5814;BME280;2933;52.302;8.134;2023-01-23T21:21:58;102777.50;;;0.56;100.00
5814;BME280;2933;52.302;8.134;2023-01-23T21:27:00;102777.63;;;0.64;100.00
5814;BME280;2933;52.302;8.134;2023-01-23T21:32:03;102775.81;;;0.58;100.00
5814;BME280;2933;52.302;8.134;2023-01-23T21:37:05;102769.00;;;0.62;100.00
5814;BME280;2933;52.302;8.134;2023-01-23T21:42:10;102767.22;;;0.56;100.00
5814;BME280;2933;52.302;8.134;2023-01-23T21:47:12;102779.31;;;0.62;100.00
5814;BME280;2933;52.302;8.134;2023-01-23T21:52:14;102776.72;;;0.60;100.00
5814;BME280;2933;52.302;8.134;2023-01-23T21:57:15;102778.53;;;0.66;100.00
5814;BME280;2933;52.302;8.134;2023-01-23T22:02:18;102767.28;;;0.61;100.00
5814;BME280;2933;52.302;8.134;2023-01-23T22:07:20;102770.56;;;0.52;100.00
5814;BME280;2933;52.302;8.134;2023-01-23T22:12:21;102791.34;;;0.63;100.00
5814;BME280;2933;52.302;8.134;2023-01-23T22:17:25;102787.00;;;0.60;100.00
5814;BME280;2933;52.302;8.134;2023-01-23T22:22:26;102789.66;;;0.63;100.00
5814;BME280;2933;52.302;8.134;2023-01-23T22:27:28;102797.47;;;0.70;100.00
5814;BME280;2933;52.302;8.134;2023-01-23T22:32:32;102788.97;;;0.74;100.00
5814;BME280;2933;52.302;8.134;2023-01-23T22:37:34;102781.97;;;0.68;100.00
5814;BME280;2933;52.302;8.134;2023-01-23T22:42:35;102790.59;;;0.69;100.00
5814;BME280;2933;52.302;8.134;2023-01-23T22:47:38;102797.31;;;0.62;100.00
5814;BME280;2933;52.302;8.134;2023-01-23T22:52:40;102801.63;;;0.64;100.00
5814;BME280;2933;52.302;8.134;2023-01-23T22:57:42;102805.00;;;0.59;100.00
5814;BME280;2933;52.302;8.134;2023-01-23T23:02:45;102804.31;;;0.69;100.00
5814;BME280;2933;52.302;8.134;2023-01-23T23:07:46;102805.84;;;0.61;100.00
5814;BME280;2933;52.302;8.134;2023-01-23T23:12:48;102804.31;;;0.69;100.00
5814;BME280;2933;52.302;8.134;2023-01-23T23:17:50;102809.31;;;0.61;100.00
5814;BME280;2933;52.302;8.134;2023-01-23T23:22:52;102816.94;;;0.57;100.00
5814;BME280;2933;52.302;8.134;2023-01-23T23:27:54;102802.41;;;0.57;100.00
5814;BME280;2933;52.302;8.134;2023-01-23T23:32:56;102803.25;;;0.58;100.00
5814;BME280;2933;52.302;8.134;2023-01-23T23:37:58;102812.84;;;0.67;100.00
5814;BME280;2933;52.302;8.134;2023-01-23T23:42:59;102808.53;;;0.66;100.00
5814;BME280;2933;52.302;8.134;2023-01-23T23:48:02;102797.31;;;0.62;100.00
5814;BME280;2933;52.302;8.134;2023-01-23T23:53:04;102793.06;;;0.64;100.00
5814;BME280;2933;52.302;8.134;2023-01-23T23:58:05;102782.75;;;0.62;100.00
